sensor_id;sensor_type;location;lat;lon;timestamp;P1;durP1;ratioP1;P2;durP2;ratioP2
13374;SDS011;6756;51.354;15.754;2022-07-03T00:03:51;4.97;;;3.60;;
13374;SDS011;6756;51.354;15.754;2022-07-03T00:07:52;4.00;;;3.60;;
13374;SDS011;6756;51.354;15.754;2022-07-03T00:11:53;4.60;;;3.60;;
13374;SDS011;6756;51.354;15.754;2022-07-03T00:15:54;6.93;;;4.20;;
13374;SDS011;6756;51.354;15.754;2022-07-03T00:19:55;3.43;;;3.13;;
13374;SDS011;6756;51.354;15.754;2022-07-03T00:24:07;4.13;;;3.40;;
13374;SDS011;6756;51.354;15.754;2022-07-03T00:28:10;3.67;;;3.33;;
13374;SDS011;6756;51.354;15.754;2022-07-03T00:32:11;4.57;;;4.07;;
13374;SDS011;6756;51.354;15.754;2022-07-03T00:36:13;4.37;;;3.73;;
13374;SDS011;6756;51.354;15.754;2022-07-03T00:40:14;4.73;;;4.23;;
13374;SDS011;6756;51.354;15.754;2022-07-03T00:44:15;4.13;;;3.73;;
13374;SDS011;6756;51.354;15.754;2022-07-03T00:48:20;4.00;;;3.30;;
13374;SDS011;6756;51.354;15.754;2022-07-03T00:52:21;4.87;;;3.70;;
13374;SDS011;6756;51.354;15.754;2022-07-03T00:56:27;4.00;;;3.60;;
13374;SDS011;6756;51.354;15.754;2022-07-03T01:00:29;4.63;;;4.07;;
13374;SDS011;6756;51.354;15.754;2022-07-03T01:04:44;4.30;;;3.90;;
13374;SDS011;6756;51.354;15.754;2022-07-03T01:08:51;4.17;;;3.73;;
13374;SDS011;6756;51.354;15.754;2022-07-03T01:13:06;5.17;;;3.60;;
13374;SDS011;6756;51.354;15.754;2022-07-03T01:17:26;4.93;;;3.70;;
13374;SDS011;6756;51.354;15.754;2022-07-03T01:25:54;4.60;;;4.20;;
13374;SDS011;6756;51.354;15.754;2022-07-03T01:30:02;4.07;;;3.67;;
13374;SDS011;6756;51.354;15.754;2022-07-03T01:34:10;6.57;;;4.07;;
13374;SDS011;6756;51.354;15.754;2022-07-03T01:38:14;4.50;;;4.10;;
13374;SDS011;6756;51.354;15.754;2022-07-03T01:42:15;3.83;;;3.53;;
13374;SDS011;6756;51.354;15.754;2022-07-03T01:46:18;5.30;;;4.20;;
13374;SDS011;6756;51.354;15.754;2022-07-03T01:50:20;4.37;;;3.97;;
13374;SDS011;6756;51.354;15.754;2022-07-03T01:54:24;4.40;;;4.00;;
13374;SDS011;6756;51.354;15.754;2022-07-03T01:58:26;5.97;;;4.43;;
13374;SDS011;6756;51.354;15.754;2022-07-03T02:02:32;4.77;;;4.27;;
13374;SDS011;6756;51.354;15.754;2022-07-03T02:10:46;5.00;;;4.27;;
13374;SDS011;6756;51.354;15.754;2022-07-03T02:15:05;5.10;;;4.60;;
13374;SDS011;6756;51.354;15.754;2022-07-03T02:19:07;4.10;;;3.70;;
13374;SDS011;6756;51.354;15.754;2022-07-03T02:23:12;4.93;;;4.53;;
13374;SDS011;6756;51.354;15.754;2022-07-03T02:27:17;5.63;;;4.90;;
13374;SDS011;6756;51.354;15.754;2022-07-03T02:31:23;6.00;;;4.53;;
13374;SDS011;6756;51.354;15.754;2022-07-03T02:35:27;5.00;;;4.30;;
13374;SDS011;6756;51.354;15.754;2022-07-03T02:39:32;5.47;;;4.97;;
13374;SDS011;6756;51.354;15.754;2022-07-03T02:44:01;4.83;;;4.33;;
13374;SDS011;6756;51.354;15.754;2022-07-03T03:01:29;6.33;;;5.63;;
13374;SDS011;6756;51.354;15.754;2022-07-03T03:09:46;6.67;;;4.87;;
13374;SDS011;6756;51.354;15.754;2022-07-03T03:13:49;7.50;;;6.53;;
13374;SDS011;6756;51.354;15.754;2022-07-03T03:17:53;8.00;;;6.23;;
13374;SDS011;6756;51.354;15.754;2022-07-03T03:26:22;5.83;;;5.20;;
13374;SDS011;6756;51.354;15.754;2022-07-03T03:30:24;8.63;;;5.10;;
13374;SDS011;6756;51.354;15.754;2022-07-03T03:34:25;3.97;;;3.50;;
13374;SDS011;6756;51.354;15.754;2022-07-03T03:38:27;4.60;;;4.20;;
13374;SDS011;6756;51.354;15.754;2022-07-03T03:42:30;5.83;;;3.70;;
13374;SDS011;6756;51.354;15.754;2022-07-03T03:46:31;3.67;;;3.37;;
13374;SDS011;6756;51.354;15.754;2022-07-03T03:50:32;5.00;;;4.13;;
13374;SDS011;6756;51.354;15.754;2022-07-03T03:54:32;4.93;;;4.20;;
13374;SDS011;6756;51.354;15.754;2022-07-03T03:58:34;4.33;;;3.93;;
13374;SDS011;6756;51.354;15.754;2022-07-03T04:02:37;6.00;;;4.40;;
13374;SDS011;6756;51.354;15.754;2022-07-03T04:06:38;4.07;;;3.63;;
13374;SDS011;6756;51.354;15.754;2022-07-03T04:10:39;5.70;;;4.13;;
13374;SDS011;6756;51.354;15.754;2022-07-03T04:14:40;6.17;;;4.00;;
13374;SDS011;6756;51.354;15.754;2022-07-03T04:18:42;4.33;;;3.60;;
13374;SDS011;6756;51.354;15.754;2022-07-03T04:22:43;3.80;;;3.40;;
13374;SDS011;6756;51.354;15.754;2022-07-03T04:26:44;5.07;;;3.43;;
13374;SDS011;6756;51.354;15.754;2022-07-03T04:30:45;8.00;;;4.97;;
13374;SDS011;6756;51.354;15.754;2022-07-03T04:34:46;7.70;;;4.37;;
13374;SDS011;6756;51.354;15.754;2022-07-03T04:38:46;7.70;;;4.60;;
13374;SDS011;6756;51.354;15.754;2022-07-03T04:42:47;6.23;;;4.20;;
13374;SDS011;6756;51.354;15.754;2022-07-03T04:46:48;5.53;;;4.33;;
13374;SDS011;6756;51.354;15.754;2022-07-03T04:50:49;6.40;;;4.07;;
13374;SDS011;6756;51.354;15.754;2022-07-03T04:54:50;6.23;;;3.33;;
13374;SDS011;6756;51.354;15.754;2022-07-03T04:58:51;5.50;;;3.73;;
13374;SDS011;6756;51.354;15.754;2022-07-03T05:02:51;4.53;;;3.33;;
13374;SDS011;6756;51.354;15.754;2022-07-03T05:06:52;5.73;;;3.40;;
13374;SDS011;6756;51.354;15.754;2022-07-03T05:10:53;6.17;;;3.37;;
13374;SDS011;6756;51.354;15.754;2022-07-03T05:14:54;4.70;;;2.80;;
13374;SDS011;6756;51.354;15.754;2022-07-03T05:18:55;4.20;;;3.20;;
13374;SDS011;6756;51.354;15.754;2022-07-03T05:22:56;4.50;;;2.70;;
13374;SDS011;6756;51.354;15.754;2022-07-03T05:26:59;5.03;;;3.20;;
13374;SDS011;6756;51.354;15.754;2022-07-03T05:30:59;4.40;;;3.00;;
13374;SDS011;6756;51.354;15.754;2022-07-03T05:35:00;6.73;;;5.37;;
13374;SDS011;6756;51.354;15.754;2022-07-03T05:39:01;5.17;;;3.60;;
13374;SDS011;6756;51.354;15.754;2022-07-03T05:43:20;7.53;;;3.20;;
13374;SDS011;6756;51.354;15.754;2022-07-03T05:47:21;6.57;;;2.93;;
13374;SDS011;6756;51.354;15.754;2022-07-03T05:51:22;9.90;;;7.77;;
13374;SDS011;6756;51.354;15.754;2022-07-03T05:55:23;8.57;;;5.87;;
13374;SDS011;6756;51.354;15.754;2022-07-03T05:59:23;5.07;;;4.00;;
13374;SDS011;6756;51.354;15.754;2022-07-03T06:03:24;3.87;;;3.00;;
13374;SDS011;6756;51.354;15.754;2022-07-03T06:07:25;3.40;;;2.13;;
13374;SDS011;6756;51.354;15.754;2022-07-03T06:11:26;4.73;;;2.43;;
13374;SDS011;6756;51.354;15.754;2022-07-03T06:15:26;4.80;;;2.00;;
13374;SDS011;6756;51.354;15.754;2022-07-03T06:19:27;2.83;;;1.60;;
13374;SDS011;6756;51.354;15.754;2022-07-03T06:23:28;2.60;;;1.70;;
13374;SDS011;6756;51.354;15.754;2022-07-03T06:27:29;3.23;;;1.60;;
13374;SDS011;6756;51.354;15.754;2022-07-03T06:31:30;5.03;;;1.40;;
13374;SDS011;6756;51.354;15.754;2022-07-03T06:35:31;2.40;;;1.30;;
13374;SDS011;6756;51.354;15.754;2022-07-03T06:39:32;1.90;;;1.33;;
13374;SDS011;6756;51.354;15.754;2022-07-03T06:43:33;3.73;;;1.57;;
13374;SDS011;6756;51.354;15.754;2022-07-03T06:47:37;4.63;;;1.17;;
13374;SDS011;6756;51.354;15.754;2022-07-03T06:51:39;3.07;;;1.23;;
13374;SDS011;6756;51.354;15.754;2022-07-03T06:55:40;3.80;;;0.90;;
13374;SDS011;6756;51.354;15.754;2022-07-03T06:59:41;3.33;;;1.20;;
13374;SDS011;6756;51.354;15.754;2022-07-03T07:03:42;5.67;;;1.53;;
13374;SDS011;6756;51.354;15.754;2022-07-03T07:07:43;2.07;;;1.17;;
13374;SDS011;6756;51.354;15.754;2022-07-03T07:11:43;2.70;;;1.10;;
13374;SDS011;6756;51.354;15.754;2022-07-03T07:15:44;2.63;;;1.20;;
13374;SDS011;6756;51.354;15.754;2022-07-03T07:19:45;3.67;;;1.03;;
13374;SDS011;6756;51.354;15.754;2022-07-03T07:23:46;1.43;;;1.00;;
13374;SDS011;6756;51.354;15.754;2022-07-03T07:27:46;1.17;;;0.90;;
13374;SDS011;6756;51.354;15.754;2022-07-03T07:31:48;2.13;;;1.30;;
13374;SDS011;6756;51.354;15.754;2022-07-03T07:35:49;2.20;;;1.30;;
13374;SDS011;6756;51.354;15.754;2022-07-03T07:39:50;2.03;;;1.43;;
13374;SDS011;6756;51.354;15.754;2022-07-03T07:43:51;1.77;;;1.20;;
13374;SDS011;6756;51.354;15.754;2022-07-03T07:47:52;4.37;;;1.40;;
13374;SDS011;6756;51.354;15.754;2022-07-03T07:51:52;2.03;;;1.70;;
13374;SDS011;6756;51.354;15.754;2022-07-03T07:55:53;2.67;;;1.90;;
13374;SDS011;6756;51.354;15.754;2022-07-03T07:59:54;1.93;;;1.53;;
13374;SDS011;6756;51.354;15.754;2022-07-03T08:03:55;3.53;;;1.53;;
13374;SDS011;6756;51.354;15.754;2022-07-03T08:08:15;3.77;;;1.50;;
13374;SDS011;6756;51.354;15.754;2022-07-03T08:12:16;3.10;;;1.10;;
13374;SDS011;6756;51.354;15.754;2022-07-03T08:16:17;1.80;;;1.20;;
13374;SDS011;6756;51.354;15.754;2022-07-03T08:20:18;3.47;;;1.33;;
13374;SDS011;6756;51.354;15.754;2022-07-03T08:24:19;5.23;;;1.37;;
13374;SDS011;6756;51.354;15.754;2022-07-03T08:28:19;2.50;;;1.30;;
13374;SDS011;6756;51.354;15.754;2022-07-03T08:32:20;2.17;;;1.27;;
13374;SDS011;6756;51.354;15.754;2022-07-03T08:36:21;1.90;;;1.00;;
13374;SDS011;6756;51.354;15.754;2022-07-03T08:40:22;2.00;;;0.90;;
13374;SDS011;6756;51.354;15.754;2022-07-03T08:44:23;1.43;;;0.80;;
13374;SDS011;6756;51.354;15.754;2022-07-03T08:48:26;2.80;;;1.00;;
13374;SDS011;6756;51.354;15.754;2022-07-03T08:52:28;2.70;;;0.83;;
13374;SDS011;6756;51.354;15.754;2022-07-03T08:56:30;1.57;;;0.70;;
13374;SDS011;6756;51.354;15.754;2022-07-03T09:00:32;1.40;;;0.80;;
13374;SDS011;6756;51.354;15.754;2022-07-03T09:04:33;1.07;;;0.67;;
13374;SDS011;6756;51.354;15.754;2022-07-03T09:08:34;3.65;;;1.00;;
13374;SDS011;6756;51.354;15.754;2022-07-03T09:12:37;1.83;;;1.00;;
13374;SDS011;6756;51.354;15.754;2022-07-03T09:16:40;2.10;;;1.10;;
13374;SDS011;6756;51.354;15.754;2022-07-03T09:20:41;0.90;;;0.75;;
13374;SDS011;6756;51.354;15.754;2022-07-03T09:24:42;2.20;;;1.00;;
13374;SDS011;6756;51.354;15.754;2022-07-03T09:32:51;3.33;;;1.33;;
13374;SDS011;6756;51.354;15.754;2022-07-03T09:36:52;1.80;;;0.80;;
13374;SDS011;6756;51.354;15.754;2022-07-03T09:40:54;2.08;;;1.23;;
13374;SDS011;6756;51.354;15.754;2022-07-03T09:44:57;2.38;;;1.00;;
13374;SDS011;6756;51.354;15.754;2022-07-03T09:49:00;2.90;;;1.10;;
13374;SDS011;6756;51.354;15.754;2022-07-03T09:53:01;1.25;;;1.10;;
13374;SDS011;6756;51.354;15.754;2022-07-03T09:57:11;2.13;;;1.20;;
13374;SDS011;6756;51.354;15.754;2022-07-03T10:01:16;2.17;;;1.30;;
13374;SDS011;6756;51.354;15.754;2022-07-03T10:05:19;1.70;;;1.40;;
13374;SDS011;6756;51.354;15.754;2022-07-03T10:09:25;1.75;;;1.20;;
13374;SDS011;6756;51.354;15.754;2022-07-03T10:13:27;1.85;;;1.38;;
13374;SDS011;6756;51.354;15.754;2022-07-03T10:17:28;2.67;;;1.40;;
13374;SDS011;6756;51.354;15.754;2022-07-03T10:21:31;2.45;;;1.70;;
13374;SDS011;6756;51.354;15.754;2022-07-03T10:25:36;2.72;;;1.33;;
13374;SDS011;6756;51.354;15.754;2022-07-03T10:29:41;3.95;;;1.35;;
13374;SDS011;6756;51.354;15.754;2022-07-03T10:33:44;2.25;;;1.55;;
13374;SDS011;6756;51.354;15.754;2022-07-03T10:42:31;1.75;;;1.30;;
13374;SDS011;6756;51.354;15.754;2022-07-03T10:46:53;2.20;;;1.60;;
13374;SDS011;6756;51.354;15.754;2022-07-03T10:51:11;2.17;;;1.33;;
13374;SDS011;6756;51.354;15.754;2022-07-03T10:55:12;1.88;;;1.10;;
13374;SDS011;6756;51.354;15.754;2022-07-03T10:59:14;1.33;;;1.00;;
13374;SDS011;6756;51.354;15.754;2022-07-03T11:03:16;5.57;;;1.25;;
13374;SDS011;6756;51.354;15.754;2022-07-03T11:11:54;1.52;;;1.27;;
13374;SDS011;6756;51.354;15.754;2022-07-03T11:15:55;1.33;;;1.23;;
13374;SDS011;6756;51.354;15.754;2022-07-03T11:19:56;2.05;;;1.30;;
13374;SDS011;6756;51.354;15.754;2022-07-03T11:24:24;1.42;;;1.08;;
13374;SDS011;6756;51.354;15.754;2022-07-03T11:32:45;1.40;;;1.00;;
13374;SDS011;6756;51.354;15.754;2022-07-03T11:36:50;1.20;;;0.90;;
13374;SDS011;6756;51.354;15.754;2022-07-03T11:40:53;1.08;;;0.93;;
13374;SDS011;6756;51.354;15.754;2022-07-03T11:44:55;2.35;;;0.90;;
13374;SDS011;6756;51.354;15.754;2022-07-03T11:53:17;1.50;;;1.00;;
13374;SDS011;6756;51.354;15.754;2022-07-03T11:57:19;0.90;;;0.77;;
13374;SDS011;6756;51.354;15.754;2022-07-03T12:05:27;1.85;;;1.17;;
13374;SDS011;6756;51.354;15.754;2022-07-03T12:13:36;1.60;;;1.00;;
13374;SDS011;6756;51.354;15.754;2022-07-03T12:17:36;3.17;;;1.50;;
13374;SDS011;6756;51.354;15.754;2022-07-03T12:21:38;1.30;;;0.90;;
13374;SDS011;6756;51.354;15.754;2022-07-03T12:25:40;1.73;;;1.00;;
13374;SDS011;6756;51.354;15.754;2022-07-03T12:29:41;1.33;;;0.90;;
13374;SDS011;6756;51.354;15.754;2022-07-03T12:33:42;1.73;;;0.90;;
13374;SDS011;6756;51.354;15.754;2022-07-03T12:37:43;1.70;;;1.02;;
13374;SDS011;6756;51.354;15.754;2022-07-03T12:41:46;0.93;;;0.88;;
13374;SDS011;6756;51.354;15.754;2022-07-03T12:45:47;1.35;;;1.00;;
13374;SDS011;6756;51.354;15.754;2022-07-03T12:49:54;2.70;;;1.05;;
13374;SDS011;6756;51.354;15.754;2022-07-03T12:53:58;1.38;;;1.00;;
13374;SDS011;6756;51.354;15.754;2022-07-03T12:58:15;4.10;;;1.10;;
13374;SDS011;6756;51.354;15.754;2022-07-03T13:02:40;1.27;;;1.00;;
13374;SDS011;6756;51.354;15.754;2022-07-03T13:06:41;1.85;;;0.90;;
13374;SDS011;6756;51.354;15.754;2022-07-03T13:10:42;0.90;;;0.70;;
13374;SDS011;6756;51.354;15.754;2022-07-03T13:14:53;1.65;;;0.90;;
13374;SDS011;6756;51.354;15.754;2022-07-03T13:23:01;1.30;;;1.00;;
13374;SDS011;6756;51.354;15.754;2022-07-03T13:27:06;1.10;;;0.88;;
13374;SDS011;6756;51.354;15.754;2022-07-03T13:31:06;2.08;;;0.80;;
13374;SDS011;6756;51.354;15.754;2022-07-03T13:35:07;1.27;;;0.82;;
13374;SDS011;6756;51.354;15.754;2022-07-03T13:39:08;2.00;;;0.95;;
13374;SDS011;6756;51.354;15.754;2022-07-03T13:43:09;1.00;;;0.85;;
13374;SDS011;6756;51.354;15.754;2022-07-03T13:47:10;1.23;;;0.75;;
13374;SDS011;6756;51.354;15.754;2022-07-03T13:51:11;1.00;;;0.90;;
13374;SDS011;6756;51.354;15.754;2022-07-03T13:55:12;1.83;;;0.80;;
13374;SDS011;6756;51.354;15.754;2022-07-03T13:59:12;1.00;;;0.80;;
13374;SDS011;6756;51.354;15.754;2022-07-03T14:03:13;2.30;;;0.70;;
13374;SDS011;6756;51.354;15.754;2022-07-03T14:07:14;2.50;;;0.80;;
13374;SDS011;6756;51.354;15.754;2022-07-03T14:11:15;2.33;;;0.90;;
13374;SDS011;6756;51.354;15.754;2022-07-03T14:15:16;1.00;;;0.80;;
13374;SDS011;6756;51.354;15.754;2022-07-03T14:19:17;1.25;;;0.80;;
13374;SDS011;6756;51.354;15.754;2022-07-03T14:23:18;1.13;;;0.65;;
13374;SDS011;6756;51.354;15.754;2022-07-03T14:27:19;0.95;;;0.65;;
13374;SDS011;6756;51.354;15.754;2022-07-03T14:31:38;3.03;;;0.90;;
13374;SDS011;6756;51.354;15.754;2022-07-03T14:35:57;1.45;;;0.90;;
13374;SDS011;6756;51.354;15.754;2022-07-03T14:39:58;1.42;;;0.80;;
13374;SDS011;6756;51.354;15.754;2022-07-03T14:43:59;1.42;;;0.80;;
13374;SDS011;6756;51.354;15.754;2022-07-03T14:47:59;1.45;;;1.00;;
13374;SDS011;6756;51.354;15.754;2022-07-03T14:52:04;1.25;;;0.90;;
13374;SDS011;6756;51.354;15.754;2022-07-03T14:56:06;1.42;;;0.80;;
13374;SDS011;6756;51.354;15.754;2022-07-03T15:00:11;2.30;;;0.90;;
13374;SDS011;6756;51.354;15.754;2022-07-03T15:04:20;1.88;;;0.80;;
13374;SDS011;6756;51.354;15.754;2022-07-03T15:08:48;1.05;;;0.95;;
13374;SDS011;6756;51.354;15.754;2022-07-03T15:12:58;1.00;;;0.80;;
13374;SDS011;6756;51.354;15.754;2022-07-03T15:17:01;1.00;;;0.88;;
13374;SDS011;6756;51.354;15.754;2022-07-03T15:21:02;1.10;;;1.00;;
13374;SDS011;6756;51.354;15.754;2022-07-03T15:25:03;1.00;;;0.70;;
13374;SDS011;6756;51.354;15.754;2022-07-03T15:29:06;1.02;;;0.70;;
13374;SDS011;6756;51.354;15.754;2022-07-03T15:33:09;1.58;;;0.70;;
13374;SDS011;6756;51.354;15.754;2022-07-03T15:41:34;1.80;;;1.02;;
13374;SDS011;6756;51.354;15.754;2022-07-03T15:50:03;1.25;;;0.90;;
13374;SDS011;6756;51.354;15.754;2022-07-03T15:54:04;2.75;;;0.82;;
13374;SDS011;6756;51.354;15.754;2022-07-03T15:58:23;0.98;;;0.88;;
13374;SDS011;6756;51.354;15.754;2022-07-03T16:06:55;2.22;;;1.50;;
13374;SDS011;6756;51.354;15.754;2022-07-03T16:10:56;3.33;;;1.00;;
13374;SDS011;6756;51.354;15.754;2022-07-03T16:15:00;2.88;;;1.00;;
13374;SDS011;6756;51.354;15.754;2022-07-03T16:19:03;2.58;;;1.20;;
13374;SDS011;6756;51.354;15.754;2022-07-03T16:23:06;1.90;;;1.30;;
13374;SDS011;6756;51.354;15.754;2022-07-03T16:27:13;1.80;;;1.33;;
13374;SDS011;6756;51.354;15.754;2022-07-03T16:31:16;1.25;;;1.00;;
13374;SDS011;6756;51.354;15.754;2022-07-03T16:39:33;1.00;;;0.90;;
13374;SDS011;6756;51.354;15.754;2022-07-03T16:43:38;1.40;;;1.00;;
13374;SDS011;6756;51.354;15.754;2022-07-03T16:51:41;1.25;;;1.08;;
13374;SDS011;6756;51.354;15.754;2022-07-03T16:55:43;2.03;;;1.40;;
13374;SDS011;6756;51.354;15.754;2022-07-03T16:59:45;1.27;;;1.17;;
13374;SDS011;6756;51.354;15.754;2022-07-03T17:03:47;1.85;;;1.23;;
13374;SDS011;6756;51.354;15.754;2022-07-03T17:07:49;0.98;;;0.88;;
13374;SDS011;6756;51.354;15.754;2022-07-03T17:11:51;1.33;;;1.05;;
13374;SDS011;6756;51.354;15.754;2022-07-03T17:15:52;2.33;;;1.33;;
13374;SDS011;6756;51.354;15.754;2022-07-03T17:19:59;2.30;;;1.20;;
13374;SDS011;6756;51.354;15.754;2022-07-03T17:24:06;1.20;;;1.10;;
13374;SDS011;6756;51.354;15.754;2022-07-03T17:28:07;1.63;;;1.50;;
13374;SDS011;6756;51.354;15.754;2022-07-03T17:32:08;1.25;;;1.08;;
13374;SDS011;6756;51.354;15.754;2022-07-03T17:36:20;1.42;;;0.90;;
13374;SDS011;6756;51.354;15.754;2022-07-03T17:40:23;8.25;;;5.97;;
13374;SDS011;6756;51.354;15.754;2022-07-03T17:44:24;2.03;;;1.20;;
13374;SDS011;6756;51.354;15.754;2022-07-03T17:48:27;1.10;;;1.00;;
13374;SDS011;6756;51.354;15.754;2022-07-03T17:52:31;1.10;;;1.00;;
13374;SDS011;6756;51.354;15.754;2022-07-03T17:56:34;1.75;;;0.90;;
13374;SDS011;6756;51.354;15.754;2022-07-03T18:00:35;1.02;;;0.93;;
13374;SDS011;6756;51.354;15.754;2022-07-03T18:04:37;1.10;;;1.00;;
13374;SDS011;6756;51.354;15.754;2022-07-03T18:08:44;4.93;;;1.40;;
13374;SDS011;6756;51.354;15.754;2022-07-03T18:12:53;2.63;;;1.20;;
13374;SDS011;6756;51.354;15.754;2022-07-03T18:16:59;10.60;;;1.80;;
13374;SDS011;6756;51.354;15.754;2022-07-03T18:21:01;4.10;;;1.27;;
13374;SDS011;6756;51.354;15.754;2022-07-03T18:25:03;1.27;;;0.93;;
13374;SDS011;6756;51.354;15.754;2022-07-03T18:29:05;2.30;;;1.00;;
13374;SDS011;6756;51.354;15.754;2022-07-03T18:33:07;1.73;;;1.02;;
13374;SDS011;6756;51.354;15.754;2022-07-03T18:37:09;1.10;;;1.00;;
13374;SDS011;6756;51.354;15.754;2022-07-03T18:41:09;1.80;;;1.30;;
13374;SDS011;6756;51.354;15.754;2022-07-03T18:45:12;1.35;;;1.10;;
13374;SDS011;6756;51.354;15.754;2022-07-03T18:49:13;2.35;;;1.10;;
13374;SDS011;6756;51.354;15.754;2022-07-03T18:53:26;2.08;;;1.10;;
13374;SDS011;6756;51.354;15.754;2022-07-03T18:57:46;1.00;;;0.90;;
13374;SDS011;6756;51.354;15.754;2022-07-03T19:02:16;1.30;;;1.20;;
13374;SDS011;6756;51.354;15.754;2022-07-03T19:06:22;1.30;;;1.20;;
13374;SDS011;6756;51.354;15.754;2022-07-03T19:10:27;1.27;;;1.17;;
13374;SDS011;6756;51.354;15.754;2022-07-03T19:14:32;1.35;;;1.25;;
13374;SDS011;6756;51.354;15.754;2022-07-03T19:18:34;1.67;;;1.50;;
13374;SDS011;6756;51.354;15.754;2022-07-03T19:22:35;1.70;;;1.60;;
13374;SDS011;6756;51.354;15.754;2022-07-03T19:26:36;3.60;;;2.77;;
13374;SDS011;6756;51.354;15.754;2022-07-03T19:30:37;9.40;;;6.10;;
13374;SDS011;6756;51.354;15.754;2022-07-03T19:34:38;7.33;;;4.87;;
13374;SDS011;6756;51.354;15.754;2022-07-03T19:38:40;16.30;;;9.47;;
13374;SDS011;6756;51.354;15.754;2022-07-03T19:42:41;5.03;;;4.27;;
13374;SDS011;6756;51.354;15.754;2022-07-03T19:46:42;3.87;;;3.00;;
13374;SDS011;6756;51.354;15.754;2022-07-03T19:50:45;4.40;;;2.33;;
13374;SDS011;6756;51.354;15.754;2022-07-03T19:54:46;2.50;;;2.30;;
13374;SDS011;6756;51.354;15.754;2022-07-03T19:58:47;3.13;;;2.73;;
13374;SDS011;6756;51.354;15.754;2022-07-03T20:02:48;4.20;;;3.20;;
13374;SDS011;6756;51.354;15.754;2022-07-03T20:06:48;3.13;;;2.80;;
13374;SDS011;6756;51.354;15.754;2022-07-03T20:10:50;3.20;;;2.90;;
13374;SDS011;6756;51.354;15.754;2022-07-03T20:14:51;2.80;;;2.60;;
13374;SDS011;6756;51.354;15.754;2022-07-03T20:18:52;2.73;;;2.47;;
13374;SDS011;6756;51.354;15.754;2022-07-03T20:22:53;2.57;;;2.37;;
13374;SDS011;6756;51.354;15.754;2022-07-03T20:26:54;2.60;;;2.40;;
13374;SDS011;6756;51.354;15.754;2022-07-03T20:30:56;2.83;;;2.63;;
13374;SDS011;6756;51.354;15.754;2022-07-03T20:35:00;2.60;;;2.23;;
13374;SDS011;6756;51.354;15.754;2022-07-03T20:39:05;2.77;;;2.30;;
13374;SDS011;6756;51.354;15.754;2022-07-03T20:43:07;2.53;;;2.33;;
13374;SDS011;6756;51.354;15.754;2022-07-03T20:47:08;2.30;;;2.10;;
13374;SDS011;6756;51.354;15.754;2022-07-03T20:51:09;2.40;;;2.20;;
13374;SDS011;6756;51.354;15.754;2022-07-03T20:55:10;2.77;;;2.47;;
13374;SDS011;6756;51.354;15.754;2022-07-03T20:59:10;3.73;;;3.43;;
13374;SDS011;6756;51.354;15.754;2022-07-03T21:03:11;3.57;;;3.27;;
13374;SDS011;6756;51.354;15.754;2022-07-03T21:07:12;3.30;;;2.93;;
13374;SDS011;6756;51.354;15.754;2022-07-03T21:11:13;3.27;;;2.97;;
13374;SDS011;6756;51.354;15.754;2022-07-03T21:15:53;3.10;;;2.90;;
13374;SDS011;6756;51.354;15.754;2022-07-03T21:19:54;2.93;;;2.73;;
13374;SDS011;6756;51.354;15.754;2022-07-03T21:23:56;2.80;;;2.60;;
13374;SDS011;6756;51.354;15.754;2022-07-03T21:27:57;3.03;;;2.83;;
13374;SDS011;6756;51.354;15.754;2022-07-03T21:31:57;3.13;;;2.83;;
13374;SDS011;6756;51.354;15.754;2022-07-03T21:35:58;3.97;;;3.67;;
13374;SDS011;6756;51.354;15.754;2022-07-03T21:39:59;3.90;;;3.43;;
13374;SDS011;6756;51.354;15.754;2022-07-03T21:44:01;4.37;;;3.43;;
13374;SDS011;6756;51.354;15.754;2022-07-03T21:48:02;5.00;;;4.03;;
13374;SDS011;6756;51.354;15.754;2022-07-03T21:52:04;4.00;;;3.60;;
13374;SDS011;6756;51.354;15.754;2022-07-03T21:56:04;4.37;;;3.70;;
13374;SDS011;6756;51.354;15.754;2022-07-03T22:00:06;4.10;;;3.70;;
13374;SDS011;6756;51.354;15.754;2022-07-03T22:04:07;6.80;;;4.07;;
13374;SDS011;6756;51.354;15.754;2022-07-03T22:08:08;5.40;;;3.90;;
13374;SDS011;6756;51.354;15.754;2022-07-03T22:12:10;4.30;;;3.90;;
13374;SDS011;6756;51.354;15.754;2022-07-03T22:16:30;4.87;;;4.43;;
13374;SDS011;6756;51.354;15.754;2022-07-03T22:20:30;6.10;;;4.33;;
13374;SDS011;6756;51.354;15.754;2022-07-03T22:24:32;5.47;;;4.97;;
13374;SDS011;6756;51.354;15.754;2022-07-03T22:28:34;4.93;;;4.33;;
13374;SDS011;6756;51.354;15.754;2022-07-03T22:32:35;5.03;;;4.53;;
13374;SDS011;6756;51.354;15.754;2022-07-03T22:36:38;5.70;;;4.67;;
13374;SDS011;6756;51.354;15.754;2022-07-03T22:40:39;4.47;;;4.07;;
13374;SDS011;6756;51.354;15.754;2022-07-03T22:44:40;5.00;;;4.50;;
13374;SDS011;6756;51.354;15.754;2022-07-03T22:48:41;5.20;;;4.70;;
13374;SDS011;6756;51.354;15.754;2022-07-03T22:52:42;5.67;;;5.10;;
13374;SDS011;6756;51.354;15.754;2022-07-03T22:56:43;6.63;;;5.20;;
13374;SDS011;6756;51.354;15.754;2022-07-03T23:00:47;5.40;;;4.90;;
13374;SDS011;6756;51.354;15.754;2022-07-03T23:04:48;5.70;;;5.17;;
13374;SDS011;6756;51.354;15.754;2022-07-03T23:08:50;5.53;;;5.03;;
13374;SDS011;6756;51.354;15.754;2022-07-03T23:12:50;5.93;;;5.43;;
13374;SDS011;6756;51.354;15.754;2022-07-03T23:16:51;5.67;;;5.13;;
13374;SDS011;6756;51.354;15.754;2022-07-03T23:20:52;5.60;;;4.97;;
13374;SDS011;6756;51.354;15.754;2022-07-03T23:24:53;6.13;;;5.53;;
13374;SDS011;6756;51.354;15.754;2022-07-03T23:28:53;5.77;;;5.27;;
13374;SDS011;6756;51.354;15.754;2022-07-03T23:32:54;5.77;;;5.20;;
13374;SDS011;6756;51.354;15.754;2022-07-03T23:36:55;6.30;;;5.70;;
13374;SDS011;6756;51.354;15.754;2022-07-03T23:40:56;6.30;;;5.70;;
13374;SDS011;6756;51.354;15.754;2022-07-03T23:44:57;5.73;;;5.13;;
13374;SDS011;6756;51.354;15.754;2022-07-03T23:48:57;5.63;;;5.10;;
13374;SDS011;6756;51.354;15.754;2022-07-03T23:53:17;6.07;;;5.47;;
13374;SDS011;6756;51.354;15.754;2022-07-03T23:57:18;5.97;;;5.10;;
